Time,TemperatureF,DewpointF,PressureIn,WindDirection,WindDirectionDegrees,WindSpeedMPH,WindSpeedGustMPH,Humidity,HourlyPrecipIn,Conditions,Clouds,dailyrainin,SolarRadiationWatts/m^2,SoftwareType,DateUTC
2013-11-11 00:03:00,54.5,48.8,30.32,SE,135,0.0,0.0,81,0.00,CLR,,0.00,0.0,WeatherDisplay:10.37,2013-11-11 06:03:00,
2013-11-11 00:08:00,54.5,48.8,30.32,SE,135,0.0,0.0,81,0.00,CLR,,0.00,0.0,WeatherDisplay:10.37,2013-11-11 06:08:00,
2013-11-11 00:13:00,54.1,48.4,30.32,SSE,158,0.0,0.0,81,0.00,CLR,,0.00,0.0,WeatherDisplay:10.37,2013-11-11 06:13:00,
2013-11-11 00:18:00,54.1,48.4,30.32,SE,135,0.0,0.0,81,0.00,CLR,,0.00,0.0,WeatherDisplay:10.37,2013-11-11 06:18:00,
2013-11-11 00:23:00,54.1,48.4,30.32,SE,135,1.2,1.2,81,0.00,CLR,,0.00,0.0,WeatherDisplay:10.37,2013-11-11 06:23:00,
2013-11-11 00:28:00,54.1,48.4,30.30,SE,135,1.2,1.2,81,0.00,CLR,,0.00,0.0,WeatherDisplay:10.37,2013-11-11 06:28:00,
2013-11-11 00:33:00,54.1,48.4,30.30,SE,135,0.0,0.3,81,0.00,CLR,,0.00,0.0,WeatherDisplay:10.37,2013-11-11 06:33:00,
2013-11-11 00:38:00,54.1,48.4,30.30,SE,135,0.0,0.0,81,0.00,CLR,,0.00,0.0,WeatherDisplay:10.37,2013-11-11 06:38:00,
2013-11-11 00:43:00,54.0,48.3,30.30,SE,135,0.0,0.0,81,0.00,CLR,,0.00,0.0,WeatherDisplay:10.37,2013-11-11 06:43:00,
2013-11-11 00:48:00,53.8,48.1,30.31,SE,135,1.2,1.2,81,0.00,CLR,,0.00,0.0,WeatherDisplay:10.37,2013-11-11 06:48:00,
2013-11-11 00:53:00,53.8,48.1,30.31,SE,135,0.0,0.3,81,0.00,CLR,,0.00,0.0,WeatherDisplay:10.37,2013-11-11 06:53:00,
2013-11-11 00:58:00,53.8,48.1,30.31,ESE,112,1.2,1.2,81,0.00,CLR,,0.00,0.0,WeatherDisplay:10.37,2013-11-11 06:58:00,
2013-11-11 01:03:00,53.6,47.9,30.31,ESE,112,1.2,1.2,81,0.00,CLR,,0.00,0.0,WeatherDisplay:10.37,2013-11-11 07:03:00,
2013-11-11 01:08:00,53.6,47.9,30.29,ESE,112,0.0,0.6,81,0.00,CLR,,0.00,0.0,WeatherDisplay:10.37,2013-11-11 07:08:00,
2013-11-11 01:13:00,53.6,47.9,30.29,ESE,112,1.2,1.2,81,0.00,CLR,,0.00,0.0,WeatherDisplay:10.37,2013-11-11 07:13:00,
2013-11-11 01:18:00,53.6,48.2,30.29,ESE,112,1.2,1.2,82,0.00,CLR,,0.00,0.0,WeatherDisplay:10.37,2013-11-11 07:18:00,
2013-11-11 01:23:00,53.4,47.7,30.29,ESE,112,1.2,1.2,81,0.00,CLR,,0.00,0.0,WeatherDisplay:10.37,2013-11-11 07:23:00,
2013-11-11 01:28:00,53.4,48.1,30.30,ESE,112,1.2,1.2,82,0.00,CLR,,0.00,0.0,WeatherDisplay:10.37,2013-11-11 07:28:00,
2013-11-11 01:33:00,53.4,48.1,30.30,ESE,112,0.0,0.1,82,0.00,CLR,,0.00,0.0,WeatherDisplay:10.37,2013-11-11 07:33:00,
2013-11-11 01:38:00,53.1,47.7,30.30,ESE,112,0.0,0.0,82,0.00,CLR,,0.00,0.0,WeatherDisplay:10.37,2013-11-11 07:38:00,
2013-11-11 01:43:00,53.1,47.7,30.30,ESE,112,0.0,0.0,82,0.00,CLR,,0.00,0.0,WeatherDisplay:10.37,2013-11-11 07:43:00,
2013-11-11 01:48:00,52.9,47.5,30.30,SE,135,0.0,0.0,82,0.00,CLR,,0.00,0.0,WeatherDisplay:10.37,2013-11-11 07:48:00,
2013-11-11 01:53:00,52.9,47.5,30.30,SE,135,0.0,0.0,82,0.00,CLR,,0.00,0.0,WeatherDisplay:10.37,2013-11-11 07:53:00,
2013-11-11 01:58:00,52.7,47.4,30.30,SE,135,0.0,0.0,82,0.00,CLR,,0.00,0.0,WeatherDisplay:10.37,2013-11-11 07:58:00,
2013-11-11 02:03:00,52.7,47.4,30.30,SE,135,0.0,0.0,82,0.00,CLR,,0.00,0.0,WeatherDisplay:10.37,2013-11-11 08:03:00,
2013-11-11 02:08:00,52.5,47.2,30.30,SE,135,0.0,0.0,82,0.00,CLR,,0.00,0.0,WeatherDisplay:10.37,2013-11-11 08:08:00,
2013-11-11 02:13:00,52.7,47.4,30.30,SE,135,0.0,0.0,82,0.00,CLR,,0.00,0.0,WeatherDisplay:10.37,2013-11-11 08:13:00,
2013-11-11 02:18:00,52.7,47.4,30.30,SSE,158,0.0,0.0,82,0.00,CLR,,0.00,0.0,WeatherDisplay:10.37,2013-11-11 08:18:00,
2013-11-11 02:23:00,52.3,47.0,30.30,SSE,158,0.0,0.0,82,0.00,CLR,,0.00,0.0,WeatherDisplay:10.37,2013-11-11 08:23:00,
2013-11-11 02:28:00,52.3,47.0,30.29,SSE,158,0.0,0.0,82,0.00,CLR,,0.00,0.0,WeatherDisplay:10.37,2013-11-11 08:28:00,
2013-11-11 02:33:00,52.3,47.0,30.29,SE,135,0.0,0.0,82,0.00,CLR,,0.00,0.0,WeatherDisplay:10.37,2013-11-11 08:33:00,
2013-11-11 02:38:00,52.2,46.8,30.29,SSE,158,0.0,0.0,82,0.00,CLR,,0.00,0.0,WeatherDisplay:10.37,2013-11-11 08:38:00,
2013-11-11 02:43:00,52.2,46.8,30.29,SE,135,0.0,0.0,82,0.00,CLR,,0.00,0.0,WeatherDisplay:10.37,2013-11-11 08:43:00,
2013-11-11 02:48:00,52.3,47.0,30.30,SSE,158,0.0,0.0,82,0.00,CLR,,0.00,0.0,WeatherDisplay:10.37,2013-11-11 08:48:00,
2013-11-11 02:54:00,52.2,47.2,30.30,SE,135,1.2,1.2,83,0.00,CLR,,0.00,0.0,WeatherDisplay:10.37,2013-11-11 08:54:00,
2013-11-11 02:59:00,52.2,47.2,30.30,SE,135,1.2,1.2,83,0.00,CLR,,0.00,0.0,WeatherDisplay:10.37,2013-11-11 08:59:00,
2013-11-11 03:04:00,52.2,47.2,30.30,SSE,158,0.0,0.6,83,0.00,CLR,,0.00,0.0,WeatherDisplay:10.37,2013-11-11 09:04:00,
2013-11-11 03:09:00,52.2,47.2,30.29,SSE,158,0.0,0.6,83,0.00,CLR,,0.00,0.0,WeatherDisplay:10.37,2013-11-11 09:09:00,
2013-11-11 03:14:00,52.0,47.0,30.29,SSE,158,0.0,0.1,83,0.00,CLR,,0.00,0.0,WeatherDisplay:10.37,2013-11-11 09:14:00,
2013-11-11 03:19:00,52.0,47.0,30.29,SSE,158,0.0,0.0,83,0.00,CLR,,0.00,0.0,WeatherDisplay:10.37,2013-11-11 09:19:00,
2013-11-11 03:24:00,51.8,46.8,30.29,SSE,158,0.0,0.0,83,0.00,CLR,,0.00,0.0,WeatherDisplay:10.37,2013-11-11 09:24:00,
2013-11-11 03:29:00,52.0,47.0,30.29,SSE,158,0.0,0.0,83,0.00,CLR,,0.00,0.0,WeatherDisplay:10.37,2013-11-11 09:29:00,
2013-11-11 03:34:00,52.0,47.0,30.29,South,180,1.2,1.2,83,0.00,CLR,,0.00,0.0,WeatherDisplay:10.37,2013-11-11 09:34:00,
2013-11-11 03:39:00,51.8,46.8,30.29,SSE,158,1.2,1.2,83,0.00,CLR,,0.00,0.0,WeatherDisplay:10.37,2013-11-11 09:39:00,
2013-11-11 03:44:00,51.8,46.8,30.29,SSE,158,1.2,1.2,83,0.00,CLR,,0.00,0.0,WeatherDisplay:10.37,2013-11-11 09:44:00,
2013-11-11 03:49:00,51.8,46.8,30.29,SSE,158,0.0,0.6,83,0.00,CLR,,0.00,0.0,WeatherDisplay:10.37,2013-11-11 09:49:00,
2013-11-11 03:54:00,51.6,46.6,30.29,South,180,0.0,0.3,83,0.00,CLR,,0.00,0.0,WeatherDisplay:10.37,2013-11-11 09:54:00,
2013-11-11 03:59:00,51.4,46.4,30.29,SSE,158,0.0,0.1,83,0.00,CLR,,0.00,0.0,WeatherDisplay:10.37,2013-11-11 09:59:00,
2013-11-11 04:04:00,51.4,46.4,30.29,SSE,158,0.0,0.0,83,0.00,CLR,,0.00,0.0,WeatherDisplay:10.37,2013-11-11 10:04:00,
2013-11-11 04:09:00,51.4,46.4,30.29,SSE,158,0.0,0.0,83,0.00,CLR,,0.00,0.0,WeatherDisplay:10.37,2013-11-11 10:09:00,
2013-11-11 04:14:00,51.3,46.3,30.29,SSE,158,0.0,0.0,83,0.00,CLR,,0.00,0.0,WeatherDisplay:10.37,2013-11-11 10:14:00,
2013-11-11 04:19:00,51.3,46.3,30.29,SSE,158,0.0,0.0,83,0.00,CLR,,0.00,0.0,WeatherDisplay:10.37,2013-11-11 10:19:00,
2013-11-11 04:24:00,50.9,45.9,30.29,SSE,158,0.0,0.0,83,0.00,CLR,,0.00,0.0,WeatherDisplay:10.37,2013-11-11 10:24:00,
2013-11-11 04:29:00,50.9,45.9,30.29,SSE,158,0.0,0.0,83,0.00,CLR,,0.00,0.0,WeatherDisplay:10.37,2013-11-11 10:29:00,
2013-11-11 04:34:00,50.7,45.7,30.29,SSE,158,0.0,0.0,83,0.00,CLR,,0.00,0.0,WeatherDisplay:10.37,2013-11-11 10:34:00,
2013-11-11 04:39:00,50.9,45.9,30.29,South,180,0.0,0.0,83,0.00,CLR,,0.00,0.0,WeatherDisplay:10.37,2013-11-11 10:39:00,
2013-11-11 04:44:00,50.9,45.9,30.29,South,180,0.0,0.0,83,0.00,CLR,,0.00,0.0,WeatherDisplay:10.37,2013-11-11 10:44:00,
2013-11-11 04:49:00,50.9,45.9,30.29,South,180,0.0,0.0,83,0.00,CLR,,0.00,0.0,WeatherDisplay:10.37,2013-11-11 10:49:00,
2013-11-11 04:54:00,50.7,45.7,30.29,South,180,0.0,0.0,83,0.00,CLR,,0.00,0.0,WeatherDisplay:10.37,2013-11-11 10:54:00,
2013-11-11 04:59:00,50.5,45.6,30.29,South,180,0.0,0.0,83,0.00,CLR,,0.00,0.0,WeatherDisplay:10.37,2013-11-11 10:59:00,
2013-11-11 05:04:00,50.5,45.6,30.29,South,180,0.0,0.0,83,0.00,CLR,,0.00,0.0,WeatherDisplay:10.37,2013-11-11 11:04:00,
2013-11-11 05:09:00,50.4,45.4,30.29,South,180,0.0,0.0,83,0.00,CLR,,0.00,0.0,WeatherDisplay:10.37,2013-11-11 11:09:00,
2013-11-11 05:14:00,50.5,45.6,30.29,South,180,0.0,0.0,83,0.00,CLR,,0.00,0.0,WeatherDisplay:10.37,2013-11-11 11:14:00,
2013-11-11 05:19:00,50.5,45.6,30.29,South,180,0.0,0.0,83,0.00,CLR,,0.00,0.0,WeatherDisplay:10.37,2013-11-11 11:19:00,
2013-11-11 05:24:00,50.5,45.6,30.29,South,180,0.0,0.0,83,0.00,CLR,,0.00,0.0,WeatherDisplay:10.37,2013-11-11 11:24:00,
2013-11-11 05:29:00,50.4,45.7,30.30,South,180,0.0,0.0,84,0.00,CLR,,0.00,0.0,WeatherDisplay:10.37,2013-11-11 11:29:00,
2013-11-11 05:34:00,50.2,45.5,30.30,South,180,0.0,0.0,84,0.00,CLR,,0.00,0.0,WeatherDisplay:10.37,2013-11-11 11:34:00,
2013-11-11 05:39:00,50.2,45.5,30.30,South,180,0.0,0.0,84,0.00,CLR,,0.00,0.0,WeatherDisplay:10.37,2013-11-11 11:39:00,
2013-11-11 05:44:00,50.2,45.5,30.30,South,180,0.0,0.0,84,0.00,CLR,,0.00,0.0,WeatherDisplay:10.37,2013-11-11 11:44:00,
2013-11-11 05:49:00,50.2,45.5,30.29,South,180,0.0,0.0,84,0.00,CLR,,0.00,0.0,WeatherDisplay:10.37,2013-11-11 11:49:00,
2013-11-11 05:54:00,50.0,45.4,30.29,South,180,0.0,0.0,84,0.00,CLR,,0.00,0.0,WeatherDisplay:10.37,2013-11-11 11:54:00,
2013-11-11 05:59:00,50.0,45.4,30.29,SSE,158,0.0,0.0,84,0.00,CLR,,0.00,0.0,WeatherDisplay:10.37,2013-11-11 11:59:00,
2013-11-11 06:04:00,50.2,45.5,30.29,SSE,158,0.0,0.0,84,0.00,CLR,,0.00,0.0,WeatherDisplay:10.37,2013-11-11 12:04:00,
2013-11-11 06:09:00,50.2,45.5,30.30,SSE,158,0.0,0.0,84,0.00,CLR,,0.00,0.0,WeatherDisplay:10.37,2013-11-11 12:09:00,
2013-11-11 06:14:00,49.8,45.2,30.30,SSE,158,0.0,0.0,84,0.00,CLR,,0.00,0.0,WeatherDisplay:10.37,2013-11-11 12:14:00,
2013-11-11 06:19:00,50.0,45.4,30.30,NNW,338,0.0,0.0,84,0.00,CLR,,0.00,0.0,WeatherDisplay:10.37,2013-11-11 12:19:00,
2013-11-11 06:24:00,49.8,45.2,30.30,NNW,338,0.0,0.0,84,0.00,CLR,,0.00,0.0,WeatherDisplay:10.37,2013-11-11 12:24:00,
2013-11-11 06:29:00,49.8,45.2,30.30,North,0,0.0,0.0,84,0.00,OVC,,0.00,0.0,WeatherDisplay:10.37,2013-11-11 12:29:00,
2013-11-11 06:34:00,49.8,45.2,30.30,NNE,22,0.0,0.0,84,0.00,OVC,,0.00,0.0,WeatherDisplay:10.37,2013-11-11 12:34:00,
2013-11-11 06:39:00,49.8,45.2,30.30,ESE,112,0.0,0.0,84,0.00,OVC,,0.00,0.0,WeatherDisplay:10.37,2013-11-11 12:39:00,
2013-11-11 06:44:00,49.8,45.2,30.30,ESE,112,0.0,0.0,84,0.00,OVC,,0.00,0.0,WeatherDisplay:10.37,2013-11-11 12:44:00,
2013-11-11 06:49:00,49.6,45.3,30.30,SE,135,0.0,0.0,85,0.00,OVC,,0.00,0.0,WeatherDisplay:10.37,2013-11-11 12:49:00,
2013-11-11 06:54:00,49.8,45.2,30.30,SE,135,0.0,0.0,84,0.00,OVC,,0.00,0.0,WeatherDisplay:10.37,2013-11-11 12:54:00,
2013-11-11 06:59:00,49.5,44.8,30.30,SE,135,0.0,0.0,84,0.00,OVC,,0.00,0.0,WeatherDisplay:10.37,2013-11-11 12:59:00,
2013-11-11 07:04:00,49.5,44.8,30.30,SE,135,0.0,0.0,84,0.00,OVC,,0.00,0.0,WeatherDisplay:10.37,2013-11-11 13:04:00,
2013-11-11 07:09:00,49.3,44.6,30.31,SSW,202,0.0,0.0,84,0.00,OVC,,0.00,0.0,WeatherDisplay:10.37,2013-11-11 13:09:00,
2013-11-11 07:14:00,49.5,44.8,30.31,SSW,202,0.0,0.0,84,0.00,OVC,,0.00,0.0,WeatherDisplay:10.37,2013-11-11 13:14:00,
2013-11-11 07:19:00,49.3,44.6,30.31,SSW,202,0.0,0.0,84,0.00,OVC,,0.00,0.0,WeatherDisplay:10.37,2013-11-11 13:19:00,
2013-11-11 07:24:00,49.3,44.6,30.31,SSW,202,0.0,0.0,84,0.00,OVC,,0.00,0.0,WeatherDisplay:10.37,2013-11-11 13:24:00,
2013-11-11 07:29:00,49.3,44.6,30.31,SSW,202,0.0,0.0,84,0.00,OVC,,0.00,0.0,WeatherDisplay:10.37,2013-11-11 13:29:00,
2013-11-11 07:35:00,49.5,44.8,30.31,SSW,202,0.0,0.0,84,0.00,OVC,,0.00,0.0,WeatherDisplay:10.37,2013-11-11 13:35:00,
2013-11-11 07:40:00,49.5,45.1,30.31,SSW,202,0.0,0.0,85,0.00,OVC,,0.00,0.0,WeatherDisplay:10.37,2013-11-11 13:40:00,
2013-11-11 07:45:00,49.5,45.1,30.31,ESE,112,0.0,0.0,85,0.00,OVC,,0.00,0.0,WeatherDisplay:10.37,2013-11-11 13:45:00,
2013-11-11 07:50:00,49.8,45.5,30.31,ESE,112,0.0,0.0,85,0.00,OVC,,0.00,0.0,WeatherDisplay:10.37,2013-11-11 13:50:00,
2013-11-11 07:55:00,49.8,45.5,30.31,ESE,112,0.0,0.0,85,0.00,OVC,,0.00,0.0,WeatherDisplay:10.37,2013-11-11 13:55:00,
2013-11-11 08:00:00,50.0,45.7,30.31,ESE,112,0.0,0.0,85,0.00,OVC,,0.00,0.0,WeatherDisplay:10.37,2013-11-11 14:00:00,
2013-11-11 08:05:00,50.2,45.8,30.31,SE,135,0.0,0.0,85,0.00,OVC,,0.00,0.0,WeatherDisplay:10.37,2013-11-11 14:05:00,
2013-11-11 08:10:00,50.5,46.5,30.31,SE,135,0.0,0.0,86,0.00,OVC,,0.00,0.0,WeatherDisplay:10.37,2013-11-11 14:10:00,
2013-11-11 08:15:00,50.7,46.7,30.31,SE,135,0.0,0.0,86,0.00,OVC,,0.00,0.0,WeatherDisplay:10.37,2013-11-11 14:15:00,
2013-11-11 08:20:00,50.7,46.7,30.31,ESE,112,0.0,0.0,86,0.00,OVC,,0.00,0.0,WeatherDisplay:10.37,2013-11-11 14:20:00,
2013-11-11 08:25:00,51.3,47.2,30.31,SSE,158,0.0,0.0,86,0.00,OVC,,0.00,0.0,WeatherDisplay:10.37,2013-11-11 14:25:00,
2013-11-11 08:30:00,51.4,47.4,30.32,ESE,112,0.0,0.0,86,0.00,OVC,,0.00,0.0,WeatherDisplay:10.37,2013-11-11 14:30:00,
2013-11-11 08:35:00,51.8,47.7,30.32,ESE,112,0.0,0.0,86,0.00,OVC,,0.00,0.0,WeatherDisplay:10.37,2013-11-11 14:35:00,
2013-11-11 08:40:00,52.2,48.1,30.32,ESE,112,0.0,0.0,86,0.00,OVC,,0.00,0.0,WeatherDisplay:10.37,2013-11-11 14:40:00,
2013-11-11 08:45:00,52.7,48.6,30.32,South,180,0.0,0.0,86,0.00,OVC,,0.00,0.0,WeatherDisplay:10.37,2013-11-11 14:45:00,
2013-11-11 08:50:00,52.9,48.8,30.32,South,180,0.0,0.0,86,0.00,OVC,,0.00,0.0,WeatherDisplay:10.37,2013-11-11 14:50:00,
2013-11-11 08:55:00,53.1,48.7,30.32,South,180,0.0,0.0,85,0.00,OVC,,0.00,0.0,WeatherDisplay:10.37,2013-11-11 14:55:00,
2013-11-11 09:00:00,53.4,49.0,30.32,South,180,0.0,0.0,85,0.00,OVC,,0.00,0.0,WeatherDisplay:10.37,2013-11-11 15:00:00,
2013-11-11 09:05:00,54.1,49.4,30.32,ESE,112,1.7,1.7,84,0.00,OVC,,0.00,0.0,WeatherDisplay:10.37,2013-11-11 15:05:00,
2013-11-11 09:10:00,54.5,49.8,30.33,SSE,158,1.2,1.2,84,0.00,OVC,,0.00,0.0,WeatherDisplay:10.37,2013-11-11 15:10:00,
2013-11-11 09:15:00,55.2,50.1,30.33,South,180,1.2,1.2,83,0.00,OVC,,0.00,10.0,WeatherDisplay:10.37,2013-11-11 15:15:00,
2013-11-11 09:20:00,55.4,50.3,30.33,SSE,158,3.5,3.5,83,0.00,OVC,,0.00,10.0,WeatherDisplay:10.37,2013-11-11 15:20:00,
2013-11-11 09:25:00,55.9,50.5,30.33,SW,225,0.0,0.7,82,0.00,OVC,,0.00,10.0,WeatherDisplay:10.37,2013-11-11 15:25:00,
2013-11-11 09:30:00,56.5,50.4,30.33,SW,225,0.0,0.1,80,0.00,OVC,,0.00,10.0,WeatherDisplay:10.37,2013-11-11 15:30:00,
2013-11-11 09:35:00,56.8,50.4,30.33,SW,225,0.0,0.1,79,0.00,OVC,,0.00,10.0,WeatherDisplay:10.37,2013-11-11 15:35:00,
2013-11-11 09:40:00,57.4,50.9,30.33,SW,225,1.2,1.2,79,0.00,OVC,,0.00,20.0,WeatherDisplay:10.37,2013-11-11 15:40:00,
2013-11-11 09:45:00,57.6,50.8,30.33,SW,225,0.0,0.3,78,0.00,OVC,,0.00,20.0,WeatherDisplay:10.37,2013-11-11 15:45:00,
2013-11-11 09:50:00,57.9,51.1,30.34,SW,225,2.3,2.3,78,0.00,OVC,,0.00,20.0,WeatherDisplay:10.37,2013-11-11 15:50:00,
2013-11-11 09:55:00,58.6,51.1,30.34,SSE,158,0.0,0.6,76,0.00,OVC,,0.00,20.0,WeatherDisplay:10.37,2013-11-11 15:55:00,
2013-11-11 10:00:00,59.0,51.1,30.34,SE,135,0.0,0.1,75,0.00,OVC,,0.00,20.0,WeatherDisplay:10.37,2013-11-11 16:00:00,
2013-11-11 10:05:00,59.5,51.2,30.34,SW,225,2.3,2.3,74,0.00,OVC,,0.00,20.0,WeatherDisplay:10.37,2013-11-11 16:05:00,
2013-11-11 10:10:00,59.7,51.4,30.34,SSE,158,3.5,3.5,74,0.00,OVC,,0.00,20.0,WeatherDisplay:10.37,2013-11-11 16:10:00,
2013-11-11 10:15:00,60.1,51.8,30.34,South,180,2.0,2.0,74,0.00,OVC,,0.00,20.0,WeatherDisplay:10.37,2013-11-11 16:15:00,
2013-11-11 10:20:00,60.3,51.9,30.34,SE,135,1.2,1.2,74,0.00,OVC,,0.00,20.0,WeatherDisplay:10.37,2013-11-11 16:20:00,
2013-11-11 10:25:00,61.0,51.9,30.34,WSW,248,0.0,0.5,72,0.00,OVC,,0.00,20.0,WeatherDisplay:10.37,2013-11-11 16:25:00,
2013-11-11 10:30:00,61.3,52.2,30.34,WSW,248,2.3,2.3,72,0.00,OVC,,0.00,20.0,WeatherDisplay:10.37,2013-11-11 16:30:00,
2013-11-11 10:35:00,61.7,51.4,30.34,WSW,248,1.2,1.2,69,0.00,OVC,,0.00,20.0,WeatherDisplay:10.37,2013-11-11 16:35:00,
2013-11-11 10:40:00,62.1,51.8,30.34,SSW,202,0.0,0.3,69,0.00,OVC,,0.00,20.0,WeatherDisplay:10.37,2013-11-11 16:40:00,
2013-11-11 10:45:00,62.8,52.5,30.34,SW,225,1.2,1.2,69,0.00,OVC,,0.00,20.0,WeatherDisplay:10.37,2013-11-11 16:45:00,
2013-11-11 10:50:00,62.8,52.5,30.32,WSW,248,1.2,1.2,69,0.00,OVC,,0.00,20.0,WeatherDisplay:10.37,2013-11-11 16:50:00,
2013-11-11 10:55:00,63.5,53.1,30.32,SW,225,0.0,0.3,69,0.00,OVC,,0.00,20.0,WeatherDisplay:10.37,2013-11-11 16:55:00,
2013-11-11 11:00:00,63.5,53.1,30.32,South,180,0.0,0.2,69,0.00,OVC,,0.00,20.0,WeatherDisplay:10.37,2013-11-11 17:00:00,
2013-11-11 11:05:00,63.9,53.5,30.32,NW,315,0.0,0.0,69,0.00,OVC,,0.00,20.0,WeatherDisplay:10.37,2013-11-11 17:05:00,
2013-11-11 11:10:00,63.9,53.5,30.32,West,270,1.2,1.2,69,0.00,OVC,,0.00,20.0,WeatherDisplay:10.37,2013-11-11 17:10:00,
2013-11-11 11:15:00,64.4,53.6,30.32,SW,225,0.0,0.1,68,0.00,OVC,,0.00,20.0,WeatherDisplay:10.37,2013-11-11 17:15:00,
2013-11-11 11:20:00,64.4,53.6,30.32,SW,225,0.0,0.1,68,0.00,OVC,,0.00,20.0,WeatherDisplay:10.37,2013-11-11 17:20:00,
2013-11-11 11:25:00,64.9,54.1,30.32,WSW,248,0.0,0.1,68,0.00,OVC,,0.00,20.0,WeatherDisplay:10.37,2013-11-11 17:25:00,
2013-11-11 11:30:00,65.1,54.3,30.31,SSW,202,0.0,0.3,68,0.00,OVC,,0.00,20.0,WeatherDisplay:10.37,2013-11-11 17:30:00,
2013-11-11 11:35:00,65.3,54.1,30.31,West,270,1.0,1.0,67,0.00,OVC,,0.00,20.0,WeatherDisplay:10.37,2013-11-11 17:35:00,
2013-11-11 11:40:00,65.7,54.4,30.31,WNW,292,1.2,1.2,67,0.00,OVC,,0.00,20.0,WeatherDisplay:10.37,2013-11-11 17:40:00,
2013-11-11 11:45:00,66.2,54.5,30.31,SW,225,1.2,1.2,66,0.00,OVC,,0.00,20.0,WeatherDisplay:10.37,2013-11-11 17:45:00,
2013-11-11 11:50:00,66.4,54.7,30.31,West,270,0.0,0.2,66,0.00,OVC,,0.00,20.0,WeatherDisplay:10.37,2013-11-11 17:50:00,
2013-11-11 11:55:00,66.4,54.7,30.31,NE,45,0.0,0.0,66,0.00,OVC,,0.00,20.0,WeatherDisplay:10.37,2013-11-11 17:55:00,
2013-11-11 12:00:00,66.7,54.6,30.31,WSW,248,0.0,0.0,65,0.00,OVC,,0.00,20.0,WeatherDisplay:10.37,2013-11-11 18:00:00,
2013-11-11 12:05:00,66.9,54.8,30.31,SW,225,0.0,0.0,65,0.00,OVC,,0.00,20.0,WeatherDisplay:10.37,2013-11-11 18:05:00,
2013-11-11 12:10:00,66.9,54.8,30.29,SW,225,0.0,0.0,65,0.00,OVC,,0.00,20.0,WeatherDisplay:10.37,2013-11-11 18:10:00,
2013-11-11 12:15:00,67.5,54.9,30.29,WSW,248,2.3,2.3,64,0.00,OVC,,0.00,20.0,WeatherDisplay:10.37,2013-11-11 18:15:00,
2013-11-11 12:20:00,67.5,54.9,30.29,WSW,248,2.3,2.3,64,0.00,OVC,,0.00,20.0,WeatherDisplay:10.37,2013-11-11 18:20:00,
2013-11-11 12:25:00,67.6,55.0,30.29,WSW,248,3.5,3.5,64,0.00,OVC,,0.00,20.0,WeatherDisplay:10.37,2013-11-11 18:25:00,
2013-11-11 12:30:00,68.0,55.4,30.28,WSW,248,0.0,0.7,64,0.00,OVC,,0.00,20.0,WeatherDisplay:10.37,2013-11-11 18:30:00,
2013-11-11 12:35:00,68.2,55.5,30.28,WNW,292,0.0,0.3,64,0.00,OVC,,0.00,20.0,WeatherDisplay:10.37,2013-11-11 18:35:00,
2013-11-11 12:41:00,68.0,55.4,30.28,West,270,1.2,1.2,64,0.00,OVC,,0.00,20.0,WeatherDisplay:10.37,2013-11-11 18:41:00,
2013-11-11 12:46:00,68.5,55.9,30.28,South,180,0.0,0.2,64,0.00,OVC,,0.00,20.0,WeatherDisplay:10.37,2013-11-11 18:46:00,
2013-11-11 12:51:00,68.7,55.6,30.27,SSE,158,2.8,2.8,63,0.00,OVC,,0.00,20.0,WeatherDisplay:10.37,2013-11-11 18:51:00,
2013-11-11 12:56:00,69.1,55.5,30.27,NW,315,0.0,0.6,62,0.00,OVC,,0.00,20.0,WeatherDisplay:10.37,2013-11-11 18:56:00,
2013-11-11 13:01:00,69.3,55.7,30.27,WNW,292,0.0,0.5,62,0.00,CLR,,0.00,20.0,WeatherDisplay:10.37,2013-11-11 19:01:00,
2013-11-11 13:06:00,69.1,55.5,30.27,WNW,292,0.0,0.1,62,0.00,SCT,,0.00,20.0,WeatherDisplay:10.37,2013-11-11 19:06:00,
2013-11-11 13:11:00,69.3,55.7,30.26,NW,315,0.0,0.0,62,0.00,BKN,,0.00,20.0,WeatherDisplay:10.37,2013-11-11 19:11:00,
2013-11-11 13:16:00,69.4,55.4,30.26,SW,225,0.0,0.1,61,0.00,BKN,,0.00,20.0,WeatherDisplay:10.37,2013-11-11 19:16:00,
2013-11-11 13:21:00,69.6,55.6,30.26,ENE,68,0.0,0.3,61,0.00,OVC,,0.00,20.0,WeatherDisplay:10.37,2013-11-11 19:21:00,
2013-11-11 13:26:00,69.8,55.7,30.26,South,180,2.3,2.3,61,0.00,OVC,,0.00,20.0,WeatherDisplay:10.37,2013-11-11 19:26:00,
2013-11-11 13:31:00,70.0,55.9,30.25,SSE,158,2.3,2.3,61,0.00,OVC,,0.00,20.0,WeatherDisplay:10.37,2013-11-11 19:31:00,
2013-11-11 13:36:00,70.2,56.1,30.25,WNW,292,2.3,2.3,61,0.00,OVC,,0.00,20.0,WeatherDisplay:10.37,2013-11-11 19:36:00,
2013-11-11 13:41:00,70.3,55.8,30.25,West,270,0.0,0.3,60,0.00,OVC,,0.00,20.0,WeatherDisplay:10.37,2013-11-11 19:41:00,
2013-11-11 13:46:00,70.3,56.2,30.25,NW,315,0.0,0.0,61,0.00,OVC,,0.00,20.0,WeatherDisplay:10.37,2013-11-11 19:46:00,
2013-11-11 13:51:00,70.5,56.0,30.24,WNW,292,0.0,0.1,60,0.00,OVC,,0.00,20.0,WeatherDisplay:10.37,2013-11-11 19:51:00,
2013-11-11 13:56:00,70.7,56.1,30.24,WNW,292,1.2,1.2,60,0.00,OVC,,0.00,20.0,WeatherDisplay:10.37,2013-11-11 19:56:00,
2013-11-11 14:01:00,70.7,56.1,30.24,SSE,158,2.1,2.1,60,0.00,OVC,,0.00,20.0,WeatherDisplay:10.37,2013-11-11 20:01:00,
2013-11-11 14:06:00,70.9,56.8,30.24,ENE,68,0.0,0.2,61,0.00,OVC,,0.00,20.0,WeatherDisplay:10.37,2013-11-11 20:06:00,
2013-11-11 14:11:00,70.9,56.3,30.23,NNE,22,0.0,0.2,60,0.00,OVC,,0.00,20.0,WeatherDisplay:10.37,2013-11-11 20:11:00,
2013-11-11 14:16:00,70.9,56.3,30.23,North,0,1.2,1.2,60,0.00,OVC,,0.00,20.0,WeatherDisplay:10.37,2013-11-11 20:16:00,
2013-11-11 14:21:00,70.9,56.3,30.23,NW,315,0.0,0.2,60,0.00,OVC,,0.00,20.0,WeatherDisplay:10.37,2013-11-11 20:21:00,
2013-11-11 14:26:00,71.1,56.5,30.23,WNW,292,0.0,0.1,60,0.00,OVC,,0.00,20.0,WeatherDisplay:10.37,2013-11-11 20:26:00,
2013-11-11 14:31:00,71.4,56.3,30.23,NW,315,0.0,0.1,59,0.00,OVC,,0.00,20.0,WeatherDisplay:10.37,2013-11-11 20:31:00,
2013-11-11 14:36:00,71.4,56.8,30.23,West,270,1.2,1.2,60,0.00,OVC,,0.00,20.0,WeatherDisplay:10.37,2013-11-11 20:36:00,
2013-11-11 14:41:00,71.8,56.7,30.23,SSW,202,0.0,0.1,59,0.00,OVC,,0.00,20.0,WeatherDisplay:10.37,2013-11-11 20:41:00,
2013-11-11 14:46:00,72.1,57.0,30.23,SE,135,3.5,3.5,59,0.00,OVC,,0.00,20.0,WeatherDisplay:10.37,2013-11-11 20:46:00,
2013-11-11 14:51:00,72.7,57.0,30.23,SSW,202,1.0,1.0,58,0.00,OVC,,0.00,20.0,WeatherDisplay:10.37,2013-11-11 20:51:00,
2013-11-11 14:56:00,73.6,57.4,30.23,WSW,248,1.3,1.3,57,0.00,OVC,,0.00,20.0,WeatherDisplay:10.37,2013-11-11 20:56:00,
2013-11-11 15:01:00,75.9,58.6,30.23,SW,225,1.2,1.2,55,0.00,OVC,,0.00,20.0,WeatherDisplay:10.37,2013-11-11 21:01:00,
2013-11-11 15:06:00,75.7,57.9,30.23,South,180,0.0,0.2,54,0.00,OVC,,0.00,20.0,WeatherDisplay:10.37,2013-11-11 21:06:00,
2013-11-11 15:11:00,74.7,57.4,30.22,ESE,112,2.3,2.3,55,0.00,OVC,,0.00,20.0,WeatherDisplay:10.37,2013-11-11 21:11:00,
2013-11-11 15:16:00,74.3,57.1,30.22,ESE,112,0.0,0.3,55,0.00,OVC,,0.00,20.0,WeatherDisplay:10.37,2013-11-11 21:16:00,
2013-11-11 15:21:00,73.9,56.8,30.22,WNW,292,0.0,0.0,55,0.00,OVC,,0.00,20.0,WeatherDisplay:10.37,2013-11-11 21:21:00,
2013-11-11 15:26:00,73.8,56.6,30.22,NNW,338,0.0,0.0,55,0.00,OVC,,0.00,20.0,WeatherDisplay:10.37,2013-11-11 21:26:00,
2013-11-11 15:31:00,73.6,56.9,30.22,South,180,0.0,0.0,56,0.00,OVC,,0.00,20.0,WeatherDisplay:10.37,2013-11-11 21:31:00,
2013-11-11 15:36:00,73.6,56.4,30.22,WSW,248,0.0,0.0,55,0.00,OVC,,0.00,20.0,WeatherDisplay:10.37,2013-11-11 21:36:00,
2013-11-11 15:41:00,73.4,56.7,30.22,West,270,0.0,0.0,56,0.00,OVC,,0.00,20.0,WeatherDisplay:10.37,2013-11-11 21:41:00,
2013-11-11 15:46:00,73.2,56.6,30.22,SSE,158,0.0,0.0,56,0.00,OVC,,0.00,20.0,WeatherDisplay:10.37,2013-11-11 21:46:00,
2013-11-11 15:51:00,73.0,56.4,30.22,NNE,22,0.0,0.0,56,0.00,OVC,,0.00,20.0,WeatherDisplay:10.37,2013-11-11 21:51:00,
2013-11-11 15:56:00,73.0,56.4,30.22,East,90,0.0,0.0,56,0.00,OVC,,0.00,20.0,WeatherDisplay:10.37,2013-11-11 21:56:00,
2013-11-11 16:01:00,72.9,56.7,30.22,WSW,248,0.0,0.0,57,0.00,OVC,,0.00,20.0,WeatherDisplay:10.37,2013-11-11 22:01:00,
2013-11-11 16:06:00,72.9,57.2,30.22,NNE,22,0.0,0.0,58,0.00,OVC,,0.00,20.0,WeatherDisplay:10.37,2013-11-11 22:06:00,
2013-11-11 16:11:00,72.9,57.2,30.22,NNE,22,0.0,0.0,58,0.00,OVC,,0.00,20.0,WeatherDisplay:10.37,2013-11-11 22:11:00,
2013-11-11 16:16:00,72.9,57.2,30.22,SSW,202,0.0,0.0,58,0.00,OVC,,0.00,20.0,WeatherDisplay:10.37,2013-11-11 22:16:00,
2013-11-11 16:21:00,72.9,56.7,30.22,WSW,248,0.0,0.0,57,0.00,OVC,,0.00,20.0,WeatherDisplay:10.37,2013-11-11 22:21:00,
2013-11-11 16:26:00,72.7,57.0,30.22,WSW,248,0.0,0.0,58,0.00,OVC,,0.00,20.0,WeatherDisplay:10.37,2013-11-11 22:26:00,
2013-11-11 16:31:00,73.0,56.9,30.22,SW,225,0.0,0.0,57,0.00,OVC,,0.00,20.0,WeatherDisplay:10.37,2013-11-11 22:31:00,
2013-11-11 16:36:00,73.0,56.9,30.22,WSW,248,0.0,0.0,57,0.00,OVC,,0.00,0.0,WeatherDisplay:10.37,2013-11-11 22:36:00,
2013-11-11 16:41:00,72.5,56.9,30.22,WSW,248,0.0,0.0,58,0.00,OVC,,0.00,0.0,WeatherDisplay:10.37,2013-11-11 22:41:00,
2013-11-11 16:46:00,72.1,56.5,30.22,WSW,248,0.0,0.0,58,0.00,OVC,,0.00,0.0,WeatherDisplay:10.37,2013-11-11 22:46:00,
2013-11-11 16:51:00,71.8,56.7,30.22,SSE,158,0.0,0.3,59,0.00,OVC,,0.00,0.0,WeatherDisplay:10.37,2013-11-11 22:51:00,
2013-11-11 16:56:00,71.4,56.8,30.22,SSE,158,0.0,0.3,60,0.00,OVC,,0.00,0.0,WeatherDisplay:10.37,2013-11-11 22:56:00,
2013-11-11 17:01:00,71.1,56.9,30.22,SSE,158,0.0,0.0,61,0.00,OVC,,0.00,0.0,WeatherDisplay:10.37,2013-11-11 23:01:00,
2013-11-11 17:06:00,70.9,56.8,30.22,SSE,158,0.0,0.0,61,0.00,OVC,,0.00,0.0,WeatherDisplay:10.37,2013-11-11 23:06:00,
2013-11-11 17:11:00,70.3,56.7,30.22,SSE,158,0.0,0.0,62,0.00,OVC,,0.00,0.0,WeatherDisplay:10.37,2013-11-11 23:11:00,
2013-11-11 17:16:00,70.2,57.0,30.22,SSE,158,0.0,0.0,63,0.00,OVC,,0.00,0.0,WeatherDisplay:10.37,2013-11-11 23:16:00,
2013-11-11 17:21:00,70.0,57.2,30.22,SSE,158,0.0,0.0,64,0.00,OVC,,0.00,0.0,WeatherDisplay:10.37,2013-11-11 23:21:00,
2013-11-11 17:26:00,69.6,57.3,30.22,SSE,158,0.0,0.0,65,0.00,OVC,,0.00,0.0,WeatherDisplay:10.37,2013-11-11 23:26:00,
2013-11-11 17:31:00,69.6,57.3,30.22,South,180,1.2,1.2,65,0.00,OVC,,0.00,0.0,WeatherDisplay:10.37,2013-11-11 23:31:00,
2013-11-11 17:36:00,69.3,57.4,30.22,SSE,158,1.4,1.4,66,0.00,OVC,,0.00,0.0,WeatherDisplay:10.37,2013-11-11 23:36:00,
2013-11-11 17:41:00,68.9,57.1,30.22,SSE,158,1.2,1.2,66,0.00,OVC,,0.00,0.0,WeatherDisplay:10.37,2013-11-11 23:41:00,
2013-11-11 17:47:00,68.9,57.1,30.22,SSE,158,1.2,1.2,66,0.00,OVC,,0.00,0.0,WeatherDisplay:10.37,2013-11-11 23:47:00,
2013-11-11 17:52:00,68.5,56.7,30.23,SSE,158,0.0,0.1,66,0.00,OVC,,0.00,0.0,WeatherDisplay:10.37,2013-11-11 23:52:00,
2013-11-11 17:57:00,68.0,56.6,30.23,SE,135,0.0,0.0,67,0.00,OVC,,0.00,0.0,WeatherDisplay:10.37,2013-11-11 23:57:00,
2013-11-11 18:02:00,67.8,56.5,30.23,SE,135,0.0,0.0,67,0.00,CLR,,0.00,0.0,WeatherDisplay:10.37,2013-11-12 00:02:00,
2013-11-11 18:07:00,67.8,56.9,30.23,SE,135,1.2,1.2,68,0.00,CLR,,0.00,0.0,WeatherDisplay:10.37,2013-11-12 00:07:00,
2013-11-11 18:12:00,67.5,56.5,30.24,ESE,112,0.0,0.3,68,0.00,CLR,,0.00,0.0,WeatherDisplay:10.37,2013-11-12 00:12:00,
2013-11-11 18:17:00,67.3,56.8,30.24,ESE,112,0.0,0.2,69,0.00,CLR,,0.00,0.0,WeatherDisplay:10.37,2013-11-12 00:17:00,
2013-11-11 18:22:00,67.1,56.6,30.24,East,90,0.0,0.0,69,0.00,CLR,,0.00,0.0,WeatherDisplay:10.37,2013-11-12 00:22:00,
2013-11-11 18:27:00,66.7,56.2,30.24,East,90,0.0,0.0,69,0.00,CLR,,0.00,0.0,WeatherDisplay:10.37,2013-11-12 00:27:00,
2013-11-11 18:32:00,66.4,56.3,30.24,ESE,112,1.2,1.2,70,0.00,CLR,,0.00,0.0,WeatherDisplay:10.37,2013-11-12 00:32:00,
2013-11-11 18:37:00,66.4,56.3,30.24,ESE,112,1.2,1.2,70,0.00,CLR,,0.00,0.0,WeatherDisplay:10.37,2013-11-12 00:37:00,
2013-11-11 18:42:00,66.4,56.3,30.24,ESE,112,1.2,1.2,70,0.00,CLR,,0.00,0.0,WeatherDisplay:10.37,2013-11-12 00:42:00,
2013-11-11 18:47:00,66.0,56.0,30.24,ESE,112,1.2,1.2,70,0.00,CLR,,0.00,0.0,WeatherDisplay:10.37,2013-11-12 00:47:00,
2013-11-11 18:52:00,66.0,56.3,30.24,ESE,112,1.4,1.4,71,0.00,CLR,,0.00,0.0,WeatherDisplay:10.37,2013-11-12 00:52:00,
2013-11-11 18:57:00,65.8,56.2,30.24,ESE,112,1.2,1.2,71,0.00,CLR,,0.00,0.0,WeatherDisplay:10.37,2013-11-12 00:57:00,
2013-11-11 19:02:00,65.5,55.8,30.24,ESE,112,1.2,1.2,71,0.00,CLR,,0.00,0.0,WeatherDisplay:10.37,2013-11-12 01:02:00,
2013-11-11 19:07:00,65.7,56.0,30.24,ESE,112,0.0,0.8,71,0.00,CLR,,0.00,0.0,WeatherDisplay:10.37,2013-11-12 01:07:00,
2013-11-11 19:12:00,65.1,55.9,30.25,SE,135,2.3,2.3,72,0.00,CLR,,0.00,0.0,WeatherDisplay:10.37,2013-11-12 01:12:00,
2013-11-11 19:17:00,65.1,55.9,30.25,ESE,112,1.2,1.2,72,0.00,CLR,,0.00,0.0,WeatherDisplay:10.37,2013-11-12 01:17:00,
2013-11-11 19:22:00,64.9,55.7,30.25,SE,135,2.3,2.3,72,0.00,CLR,,0.00,0.0,WeatherDisplay:10.37,2013-11-12 01:22:00,
2013-11-11 19:27:00,64.9,55.7,30.25,SE,135,1.2,1.2,72,0.00,CLR,,0.00,0.0,WeatherDisplay:10.37,2013-11-12 01:27:00,
2013-11-11 19:32:00,64.6,55.7,30.26,ESE,112,0.0,0.3,73,0.00,CLR,,0.00,0.0,WeatherDisplay:10.37,2013-11-12 01:32:00,
2013-11-11 19:37:00,64.6,55.7,30.26,ESE,112,0.0,0.1,73,0.00,CLR,,0.00,0.0,WeatherDisplay:10.37,2013-11-12 01:37:00,
2013-11-11 19:42:00,64.2,55.4,30.26,ESE,112,0.0,0.0,73,0.00,CLR,,0.00,0.0,WeatherDisplay:10.37,2013-11-12 01:42:00,
2013-11-11 19:47:00,64.0,55.2,30.26,ESE,112,0.0,0.1,73,0.00,CLR,,0.00,0.0,WeatherDisplay:10.37,2013-11-12 01:47:00,
2013-11-11 19:52:00,63.9,55.0,30.26,ESE,112,1.2,1.2,73,0.00,CLR,,0.00,0.0,WeatherDisplay:10.37,2013-11-12 01:52:00,
2013-11-11 19:57:00,63.7,55.2,30.26,ESE,112,0.0,0.2,74,0.00,CLR,,0.00,0.0,WeatherDisplay:10.37,2013-11-12 01:57:00,
2013-11-11 20:02:00,63.5,55.1,30.26,East,90,3.5,3.5,74,0.00,CLR,,0.00,0.0,WeatherDisplay:10.37,2013-11-12 02:02:00,
2013-11-11 20:07:00,63.7,55.2,30.26,East,90,2.5,2.5,74,0.00,CLR,,0.00,0.0,WeatherDisplay:10.37,2013-11-12 02:07:00,
2013-11-11 20:12:00,63.7,55.2,30.27,East,90,1.4,1.7,74,0.00,CLR,,0.00,0.0,WeatherDisplay:10.37,2013-11-12 02:12:00,
2013-11-11 20:17:00,63.7,55.6,30.27,SE,135,1.4,1.6,75,0.00,CLR,,0.00,0.0,WeatherDisplay:10.37,2013-11-12 02:17:00,
2013-11-11 20:22:00,63.5,55.4,30.27,ESE,112,1.2,1.2,75,0.00,CLR,,0.00,0.0,WeatherDisplay:10.37,2013-11-12 02:22:00,
2013-11-11 20:27:00,63.5,55.4,30.27,NE,45,1.2,1.2,75,0.00,CLR,,0.00,0.0,WeatherDisplay:10.37,2013-11-12 02:27:00,
2013-11-11 20:32:00,63.1,55.1,30.28,ESE,112,1.2,1.2,75,0.00,CLR,,0.00,0.0,WeatherDisplay:10.37,2013-11-12 02:32:00,
2013-11-11 20:37:00,63.0,55.3,30.28,ESE,112,1.2,1.2,76,0.00,CLR,,0.00,0.0,WeatherDisplay:10.37,2013-11-12 02:37:00,
2013-11-11 20:42:00,63.0,55.3,30.28,ESE,112,1.2,1.2,76,0.00,CLR,,0.00,0.0,WeatherDisplay:10.37,2013-11-12 02:42:00,
2013-11-11 20:47:00,62.8,55.1,30.28,ESE,112,0.0,0.8,76,0.00,CLR,,0.00,0.0,WeatherDisplay:10.37,2013-11-12 02:47:00,
2013-11-11 20:52:00,62.4,54.8,30.29,ESE,112,1.2,1.2,76,0.00,CLR,,0.00,0.0,WeatherDisplay:10.37,2013-11-12 02:52:00,
2013-11-11 20:57:00,62.2,54.9,30.29,ESE,112,1.2,1.2,77,0.00,CLR,,0.00,0.0,WeatherDisplay:10.37,2013-11-12 02:57:00,
2013-11-11 21:02:00,62.2,54.9,30.29,SE,135,2.3,2.3,77,0.00,CLR,,0.00,0.0,WeatherDisplay:10.37,2013-11-12 03:02:00,
2013-11-11 21:07:00,62.1,54.8,30.29,ESE,112,0.0,1.2,77,0.00,CLR,,0.00,0.0,WeatherDisplay:10.37,2013-11-12 03:07:00,
2013-11-11 21:12:00,62.1,54.8,30.29,SE,135,2.3,2.3,77,0.00,CLR,,0.00,0.0,WeatherDisplay:10.37,2013-11-12 03:12:00,
2013-11-11 21:17:00,61.9,54.6,30.29,ESE,112,1.2,1.2,77,0.00,CLR,,0.00,0.0,WeatherDisplay:10.37,2013-11-12 03:17:00,
2013-11-11 21:22:00,61.5,54.2,30.29,ESE,112,1.2,1.2,77,0.00,CLR,,0.00,0.0,WeatherDisplay:10.37,2013-11-12 03:22:00,
2013-11-11 21:27:00,61.7,54.8,30.31,ENE,68,1.2,1.2,78,0.00,CLR,,0.00,0.0,WeatherDisplay:10.37,2013-11-12 03:27:00,
2013-11-11 21:32:00,61.5,54.6,30.31,ESE,112,1.2,1.2,78,0.00,CLR,,0.00,0.0,WeatherDisplay:10.37,2013-11-12 03:32:00,
2013-11-11 21:37:00,61.3,54.4,30.31,SE,135,0.0,0.6,78,0.00,CLR,,0.00,0.0,WeatherDisplay:10.37,2013-11-12 03:37:00,
2013-11-11 21:42:00,61.3,54.4,30.31,ESE,112,0.0,0.1,78,0.00,CLR,,0.00,0.0,WeatherDisplay:10.37,2013-11-12 03:42:00,
2013-11-11 21:47:00,61.2,54.2,30.32,ESE,112,0.0,0.0,78,0.00,CLR,,0.00,0.0,WeatherDisplay:10.37,2013-11-12 03:47:00,
2013-11-11 21:52:00,60.8,54.2,30.32,ESE,112,0.0,0.0,79,0.00,CLR,,0.00,0.0,WeatherDisplay:10.37,2013-11-12 03:52:00,
2013-11-11 21:57:00,60.8,54.2,30.32,ESE,112,0.0,0.0,79,0.00,CLR,,0.00,0.0,WeatherDisplay:10.37,2013-11-12 03:57:00,
2013-11-11 22:02:00,60.6,54.1,30.32,ESE,112,0.0,0.0,79,0.00,CLR,,0.00,0.0,WeatherDisplay:10.37,2013-11-12 04:02:00,
2013-11-11 22:07:00,60.6,54.1,30.32,ESE,112,0.0,0.0,79,0.00,CLR,,0.00,0.0,WeatherDisplay:10.37,2013-11-12 04:07:00,
2013-11-11 22:12:00,60.6,54.1,30.32,ESE,112,0.0,0.1,79,0.00,CLR,,0.00,0.0,WeatherDisplay:10.37,2013-11-12 04:12:00,
2013-11-11 22:17:00,60.3,53.7,30.32,ESE,112,0.0,0.1,79,0.00,CLR,,0.00,0.0,WeatherDisplay:10.37,2013-11-12 04:17:00,
2013-11-11 22:22:00,60.1,53.9,30.32,ESE,112,0.0,0.0,80,0.00,CLR,,0.00,0.0,WeatherDisplay:10.37,2013-11-12 04:22:00,
2013-11-11 22:27:00,60.1,53.9,30.33,ESE,112,0.0,0.0,80,0.00,CLR,,0.00,0.0,WeatherDisplay:10.37,2013-11-12 04:27:00,
2013-11-11 22:32:00,59.9,53.7,30.33,SE,135,0.0,0.0,80,0.00,CLR,,0.00,0.0,WeatherDisplay:10.37,2013-11-12 04:32:00,
2013-11-11 22:37:00,59.9,53.7,30.33,SE,135,0.0,0.0,80,0.00,CLR,,0.00,0.0,WeatherDisplay:10.37,2013-11-12 04:37:00,
2013-11-11 22:42:00,59.9,53.7,30.33,SSE,158,0.0,0.0,80,0.00,CLR,,0.00,0.0,WeatherDisplay:10.37,2013-11-12 04:42:00,
2013-11-11 22:47:00,59.5,53.4,30.35,SE,135,0.0,0.0,80,0.00,CLR,,0.00,0.0,WeatherDisplay:10.37,2013-11-12 04:47:00,
2013-11-11 22:52:00,59.4,53.2,30.35,SE,135,0.0,0.0,80,0.00,CLR,,0.00,0.0,WeatherDisplay:10.37,2013-11-12 04:52:00,
2013-11-11 22:57:00,59.5,53.4,30.35,South,180,0.0,0.0,80,0.00,CLR,,0.00,0.0,WeatherDisplay:10.37,2013-11-12 04:57:00,
2013-11-11 23:01:00,59.4,53.5,30.35,South,180,0.0,0.0,81,0.00,CLR,,0.00,0.0,WeatherDisplay:10.37,2013-11-12 05:01:00,
2013-11-11 23:02:00,59.4,53.5,30.35,SSE,158,0.0,0.0,81,0.00,CLR,,0.00,0.0,WeatherDisplay:10.37,2013-11-12 05:02:00,
2013-11-11 23:07:00,59.2,53.4,30.35,South,180,0.0,0.0,81,0.00,CLR,,0.00,0.0,WeatherDisplay:10.37,2013-11-12 05:07:00,
2013-11-11 23:12:00,59.2,53.4,30.34,SSE,158,0.0,0.0,81,0.00,CLR,,0.00,0.0,WeatherDisplay:10.37,2013-11-12 05:12:00,
2013-11-11 23:17:00,59.2,53.4,30.34,South,180,0.0,0.0,81,0.00,CLR,,0.00,0.0,WeatherDisplay:10.37,2013-11-12 05:17:00,
2013-11-11 23:22:00,59.2,53.4,30.34,South,180,0.0,0.0,81,0.00,CLR,,0.00,0.0,WeatherDisplay:10.37,2013-11-12 05:22:00,
2013-11-11 23:27:00,59.2,53.4,30.34,South,180,0.0,0.0,81,0.00,CLR,,0.00,0.0,WeatherDisplay:10.37,2013-11-12 05:27:00,
2013-11-11 23:32:00,59.4,53.5,30.34,South,180,0.0,0.0,81,0.00,CLR,,0.00,0.0,WeatherDisplay:10.37,2013-11-12 05:32:00,
2013-11-11 23:37:00,59.4,53.5,30.34,South,180,0.0,0.0,81,0.00,CLR,,0.00,0.0,WeatherDisplay:10.37,2013-11-12 05:37:00,
2013-11-11 23:42:00,59.5,53.7,30.34,SW,225,0.0,0.0,81,0.00,CLR,,0.00,0.0,WeatherDisplay:10.37,2013-11-12 05:42:00,
2013-11-11 23:47:00,59.4,53.5,30.34,SW,225,0.0,0.0,81,0.00,CLR,,0.00,0.0,WeatherDisplay:10.37,2013-11-12 05:47:00,
2013-11-11 23:52:00,59.4,53.5,30.34,SW,225,0.0,0.0,81,0.00,CLR,,0.00,0.0,WeatherDisplay:10.37,2013-11-12 05:52:00,
2013-11-11 23:57:00,59.4,53.5,30.34,SW,225,0.0,0.0,81,0.00,CLR,,0.00,0.0,WeatherDisplay:10.37,2013-11-12 05:57:00,